TCA7378 SVFM-SVHG
Flight info
| Callsign | TCA7378 |
|---|---|
| Flight time | 0h 13m |
| Altitude | 13000 |
| Route | SVHG |
| Aircraft | C25B/M-SDE2E3FGHRWXY/LB1 |
Departure
| Time | 2026-05-06 22:26 |
|---|---|
| Airport | Generalissimo Francisco de Miranda Air Base (SVFM) |
Arrival
| Time | 2026-05-06 22:39 |
|---|---|
| Airport | Higuerote Airport (SVHG) |
| Time | Latitude | Longitude | Altitude | Speed | Heading |
|---|---|---|---|---|---|
| 2026-05-06 22:17 | 10.48392 | -66.84295 | 2743 ft | 0 kts | 8° |
| 2026-05-06 22:23 | 10.48433 | -66.84327 | 2744 ft | 11 kts | 316° |
| 2026-05-06 22:24 | 10.48457 | -66.84402 | 2744 ft | 12 kts | 283° |
| 2026-05-06 22:24 | 10.48478 | -66.84494 | 2745 ft | 14 kts | 282° |
| 2026-05-06 22:24 | 10.48500 | -66.84597 | 2746 ft | 16 kts | 282° |
| 2026-05-06 22:24 | 10.48526 | -66.84716 | 2745 ft | 18 kts | 283° |
| 2026-05-06 22:25 | 10.48555 | -66.84850 | 2744 ft | 20 kts | 283° |
| 2026-05-06 22:25 | 10.48584 | -66.84985 | 2744 ft | 18 kts | 282° |
| 2026-05-06 22:25 | 10.48611 | -66.85106 | 2744 ft | 15 kts | 282° |
| 2026-05-06 22:25 | 10.48634 | -66.85212 | 2742 ft | 13 kts | 282° |
| 2026-05-06 22:26 | 10.48684 | -66.85215 | 2743 ft | 7 kts | 95° |
| 2026-05-06 22:26 | 10.48635 | -66.84990 | 2745 ft | 92 kts | 102° |
| 2026-05-06 22:26 | 10.48438 | -66.84023 | 3322 ft | 169 kts | 98° |
| 2026-05-06 22:26 | 10.48344 | -66.82670 | 4583 ft | 211 kts | 93° |
| 2026-05-06 22:27 | 10.48218 | -66.81102 | 6115 ft | 230 kts | 95° |
| 2026-05-06 22:27 | 10.48067 | -66.79469 | 7387 ft | 234 kts | 95° |
| 2026-05-06 22:27 | 10.47910 | -66.77802 | 8559 ft | 239 kts | 97° |
| 2026-05-06 22:27 | 10.47757 | -66.76139 | 9823 ft | 241 kts | 97° |
| 2026-05-06 22:28 | 10.47605 | -66.74419 | 10988 ft | 248 kts | 96° |
| 2026-05-06 22:28 | 10.47450 | -66.72661 | 12172 ft | 251 kts | 96° |
| 2026-05-06 22:28 | 10.47270 | -66.70788 | 12600 ft | 286 kts | 95° |
| 2026-05-06 22:28 | 10.47081 | -66.68661 | 12474 ft | 306 kts | 95° |
| 2026-05-06 22:29 | 10.46891 | -66.66537 | 11911 ft | 298 kts | 95° |
| 2026-05-06 22:29 | 10.46700 | -66.64462 | 11348 ft | 291 kts | 95° |
| 2026-05-06 22:29 | 10.46517 | -66.62469 | 10777 ft | 275 kts | 96° |
| 2026-05-06 22:29 | 10.46352 | -66.60612 | 10212 ft | 261 kts | 96° |
| 2026-05-06 22:30 | 10.46188 | -66.58817 | 9634 ft | 250 kts | 96° |
| 2026-05-06 22:30 | 10.46031 | -66.57084 | 9057 ft | 243 kts | 97° |
| 2026-05-06 22:30 | 10.45877 | -66.55394 | 8730 ft | 237 kts | 97° |
| 2026-05-06 22:30 | 10.45722 | -66.53749 | 8420 ft | 231 kts | 97° |
| 2026-05-06 22:31 | 10.45578 | -66.52143 | 8118 ft | 226 kts | 96° |
| 2026-05-06 22:31 | 10.45433 | -66.50574 | 7819 ft | 222 kts | 97° |
| 2026-05-06 22:31 | 10.45293 | -66.49009 | 7530 ft | 223 kts | 97° |
| 2026-05-06 22:31 | 10.45148 | -66.47439 | 7236 ft | 224 kts | 96° |
| 2026-05-06 22:32 | 10.45007 | -66.45886 | 6937 ft | 223 kts | 96° |
| 2026-05-06 22:32 | 10.44862 | -66.44316 | 6641 ft | 224 kts | 96° |
| 2026-05-06 22:32 | 10.44725 | -66.42731 | 6347 ft | 226 kts | 97° |
| 2026-05-06 22:32 | 10.44566 | -66.41157 | 6053 ft | 223 kts | 97° |
| 2026-05-06 22:33 | 10.44432 | -66.39590 | 5759 ft | 223 kts | 95° |
| 2026-05-06 22:33 | 10.44286 | -66.38015 | 5464 ft | 225 kts | 95° |
| 2026-05-06 22:33 | 10.44140 | -66.36435 | 5167 ft | 223 kts | 95° |
| 2026-05-06 22:33 | 10.43993 | -66.34881 | 4875 ft | 220 kts | 94° |
| 2026-05-06 22:34 | 10.43858 | -66.33363 | 4584 ft | 217 kts | 95° |
| 2026-05-06 22:34 | 10.43716 | -66.31845 | 4296 ft | 214 kts | 94° |
| 2026-05-06 22:34 | 10.43580 | -66.30350 | 4020 ft | 211 kts | 94° |
| 2026-05-06 22:34 | 10.43445 | -66.28867 | 3736 ft | 211 kts | 94° |
| 2026-05-06 22:35 | 10.43304 | -66.27391 | 3461 ft | 209 kts | 92° |
| 2026-05-06 22:35 | 10.43176 | -66.25923 | 3180 ft | 208 kts | 93° |
| 2026-05-06 22:35 | 10.43034 | -66.24465 | 2906 ft | 206 kts | 92° |
| 2026-05-06 22:35 | 10.42908 | -66.23017 | 2635 ft | 206 kts | 92° |
| 2026-05-06 22:36 | 10.42777 | -66.21586 | 2368 ft | 207 kts | 93° |
| 2026-05-06 22:36 | 10.42640 | -66.20130 | 2093 ft | 206 kts | 92° |
| 2026-05-06 22:36 | 10.42773 | -66.18766 | 1823 ft | 187 kts | 72° |
| 2026-05-06 22:36 | 10.43187 | -66.17611 | 1584 ft | 160 kts | 68° |
| 2026-05-06 22:37 | 10.43544 | -66.16604 | 1377 ft | 146 kts | 68° |
| 2026-05-06 22:37 | 10.43875 | -66.15725 | 1221 ft | 122 kts | 67° |
| 2026-05-06 22:37 | 10.44156 | -66.14953 | 1060 ft | 112 kts | 68° |
| 2026-05-06 22:37 | 10.44417 | -66.14220 | 914 ft | 109 kts | 67° |
| 2026-05-06 22:38 | 10.44689 | -66.13525 | 775 ft | 106 kts | 66° |
| 2026-05-06 22:38 | 10.44932 | -66.12819 | 636 ft | 105 kts | 71° |
| 2026-05-06 22:38 | 10.45189 | -66.12136 | 507 ft | 103 kts | 64° |
| 2026-05-06 22:38 | 10.45455 | -66.11451 | 375 ft | 106 kts | 70° |
| 2026-05-06 22:39 | 10.45698 | -66.10756 | 293 ft | 103 kts | 69° |
| 2026-05-06 22:39 | 10.45953 | -66.10074 | 132 ft | 104 kts | 68° |
| 2026-05-06 22:39 | 10.46194 | -66.09404 | 18 ft | 92 kts | 70° |
| 2026-05-06 22:39 | 10.46331 | -66.09030 | 16 ft | 16 kts | 78° |
| 2026-05-06 22:40 | 10.46337 | -66.08992 | 17 ft | 4 kts | 336° |
| 2026-05-06 22:40 | 10.46328 | -66.09042 | 15 ft | 13 kts | 250° |
| 2026-05-06 22:40 | 10.46286 | -66.09156 | 14 ft | 20 kts | 250° |
| 2026-05-06 22:40 | 10.46275 | -66.09272 | 14 ft | 15 kts | 338° |
| 2026-05-06 22:41 | 10.46301 | -66.09409 | 16 ft | 14 kts | 248° |
| 2026-05-06 22:41 | 10.46268 | -66.09491 | 16 ft | 0 kts | 265° |
| 2026-05-06 22:41 | 10.46279 | -66.09499 | 16 ft | 6 kts | 19° |
| 2026-05-06 22:42 | 10.46343 | -66.09506 | 15 ft | 9 kts | 345° |
| 2026-05-06 22:42 | 10.46364 | -66.09497 | 15 ft | 0 kts | 73° |